createdAt,value
2022-11-22T00:00:50.294Z,66.55
2022-11-22T00:03:18.094Z,66.11
2022-11-22T00:05:45.918Z,66.17
2022-11-22T00:08:13.733Z,66.46
2022-11-22T00:10:41.432Z,66.22
2022-11-22T00:13:09.237Z,66.77
2022-11-22T00:15:37.116Z,66.75
2022-11-22T00:18:06.361Z,66.40
2022-11-22T00:20:34.661Z,66.84
2022-11-22T00:23:02.670Z,66.83
2022-11-22T00:25:30.389Z,66.65
2022-11-22T00:27:58.111Z,66.93
2022-11-22T00:30:25.802Z,66.35
2022-11-22T00:32:53.531Z,66.86
2022-11-22T00:35:22.691Z,66.72
2022-11-22T00:37:50.424Z,66.40
2022-11-22T00:40:18.159Z,66.51
2022-11-22T00:42:45.892Z,66.73
2022-11-22T00:45:13.605Z,66.52
2022-11-22T00:47:41.258Z,66.77
2022-11-22T00:50:10.594Z,66.75
2022-11-22T00:52:39.660Z,66.52
2022-11-22T00:55:08.436Z,66.34
2022-11-22T00:57:36.090Z,66.88
2022-11-22T01:00:04.055Z,66.18
2022-11-22T01:02:31.709Z,66.46
2022-11-22T01:04:59.432Z,66.54
2022-11-22T01:07:27.249Z,66.78
2022-11-22T01:09:56.388Z,66.74
2022-11-22T01:12:24.074Z,66.90
2022-11-22T01:14:51.721Z,66.66
2022-11-22T01:17:19.394Z,66.92
2022-11-22T01:19:47.244Z,66.74
2022-11-22T01:22:14.977Z,66.42
2022-11-22T01:24:42.683Z,66.42
2022-11-22T01:27:11.685Z,66.69
2022-11-22T01:29:39.356Z,66.43
2022-11-22T01:32:07.227Z,66.43
2022-11-22T01:34:34.998Z,66.21
2022-11-22T01:37:02.742Z,66.23
2022-11-22T01:39:30.538Z,67.03
2022-11-22T01:41:58.334Z,66.51
2022-11-22T01:44:29.270Z,66.29
2022-11-22T01:47:00.362Z,66.75
2022-11-22T01:49:31.909Z,66.54
2022-11-22T01:52:04.083Z,66.48
2022-11-22T01:54:37.144Z,66.63
2022-11-22T01:57:08.817Z,66.53
2022-11-22T01:59:40.475Z,66.47
2022-11-22T02:02:08.494Z,66.31
2022-11-22T02:04:38.818Z,66.59
2022-11-22T02:07:12.502Z,66.27
2022-11-22T02:09:41.775Z,66.71
2022-11-22T02:12:10.950Z,66.60
2022-11-22T02:14:41.519Z,66.54
2022-11-22T02:17:09.212Z,66.61
2022-11-22T02:19:43.016Z,66.79
2022-11-22T02:22:24.381Z,66.44
2022-11-22T02:24:56.591Z,66.49
2022-11-22T02:27:26.183Z,66.26
2022-11-22T02:29:54.028Z,66.43
2022-11-22T02:32:21.969Z,65.90
2022-11-22T02:34:51.550Z,66.77
2022-11-22T02:37:23.694Z,65.83
2022-11-22T02:39:57.195Z,65.90
2022-11-22T02:42:27.150Z,66.42
2022-11-22T02:44:55.002Z,66.07
2022-11-22T02:47:22.756Z,66.07
2022-11-22T02:49:50.469Z,66.14
2022-11-22T02:52:18.626Z,65.82
2022-11-22T02:54:46.414Z,66.23
2022-11-22T02:57:14.458Z,66.29
2022-11-22T02:59:43.473Z,66.37
2022-11-22T03:02:11.304Z,65.85
2022-11-22T03:04:38.997Z,66.15
2022-11-22T03:07:06.735Z,66.21
2022-11-22T03:09:34.492Z,65.84
2022-11-22T03:12:02.141Z,66.01
2022-11-22T03:14:29.881Z,65.86
2022-11-22T03:16:58.982Z,65.87
2022-11-22T03:19:26.660Z,66.00
2022-11-22T03:21:54.376Z,65.70
2022-11-22T03:24:22.210Z,66.01
2022-11-22T03:26:51.291Z,65.57
2022-11-22T03:29:19.274Z,66.07
2022-11-22T03:31:47.028Z,65.79
2022-11-22T03:34:16.739Z,65.83
2022-11-22T03:36:44.477Z,65.61
2022-11-22T03:39:12.402Z,65.68
2022-11-22T03:41:40.100Z,65.81
2022-11-22T03:44:08.277Z,66.00
2022-11-22T03:46:35.948Z,65.20
2022-11-22T03:49:03.664Z,65.57
2022-11-22T03:51:32.692Z,65.96
2022-11-22T03:54:00.419Z,65.96
2022-11-22T03:56:28.099Z,65.63
2022-11-22T03:58:55.767Z,65.63
2022-11-22T04:01:23.653Z,65.61
2022-11-22T04:03:52.323Z,65.11
2022-11-22T04:06:19.995Z,64.97
2022-11-22T04:08:49.252Z,65.05
2022-11-22T04:11:16.966Z,65.60
2022-11-22T04:14:02.070Z,65.44
2022-11-22T04:16:29.822Z,65.21
2022-11-22T04:18:57.471Z,64.77
2022-11-22T04:21:36.409Z,64.81
2022-11-22T04:24:37.093Z,65.35
2022-11-22T04:27:04.907Z,65.25
2022-11-22T04:29:32.911Z,64.73
2022-11-22T04:32:18.701Z,65.08
2022-11-22T04:34:46.397Z,65.31
2022-11-22T04:37:14.166Z,65.28
2022-11-22T04:39:43.196Z,64.53
2022-11-22T04:42:28.723Z,65.30
2022-11-22T04:44:56.477Z,65.25
2022-11-22T04:47:45.024Z,64.55
2022-11-22T04:50:34.640Z,64.81
2022-11-22T04:53:02.320Z,64.46
2022-11-22T04:55:31.330Z,64.67
2022-11-22T04:58:00.275Z,64.57
2022-11-22T05:00:28.992Z,65.18
2022-11-22T05:02:56.899Z,64.40
2022-11-22T05:05:25.140Z,64.80
2022-11-22T05:07:52.905Z,64.90
2022-11-22T05:10:26.044Z,64.59
2022-11-22T05:12:57.216Z,64.40
2022-11-22T05:15:25.029Z,64.66
2022-11-22T05:17:52.713Z,64.75
2022-11-22T05:20:20.440Z,64.66
2022-11-22T05:23:05.898Z,64.35
2022-11-22T05:25:33.606Z,64.73
2022-11-22T05:28:02.620Z,64.14
2022-11-22T05:30:30.340Z,64.38
2022-11-22T05:32:58.007Z,64.52
2022-11-22T05:35:25.743Z,63.82
2022-11-22T05:37:53.445Z,64.73
2022-11-22T05:40:21.193Z,63.91
2022-11-22T05:42:48.870Z,63.92
2022-11-22T05:45:18.140Z,64.63
2022-11-22T05:47:45.969Z,64.58
2022-11-22T05:50:14.196Z,64.14
2022-11-22T05:52:42.097Z,64.65
2022-11-22T05:55:09.951Z,64.27
2022-11-22T05:57:37.652Z,63.92
2022-11-22T06:00:06.692Z,63.88
2022-11-22T06:02:35.797Z,64.00
2022-11-22T06:05:03.467Z,65.03
2022-11-22T06:07:31.328Z,64.40
2022-11-22T06:09:59.107Z,63.59
2022-11-22T06:12:26.801Z,64.04
2022-11-22T06:14:54.491Z,64.00
2022-11-22T06:17:22.161Z,64.04
2022-11-22T06:19:51.195Z,62.90
2022-11-22T06:22:18.925Z,63.12
2022-11-22T06:24:46.637Z,62.68
2022-11-22T06:27:14.317Z,62.33
2022-11-22T06:29:42.737Z,61.68
2022-11-22T06:32:10.413Z,62.00
2022-11-22T06:34:38.116Z,62.07
2022-11-22T06:37:07.143Z,61.65
2022-11-22T06:39:34.970Z,61.95
2022-11-22T06:42:02.674Z,62.22
2022-11-22T06:44:30.339Z,62.28
2022-11-22T06:46:58.043Z,62.54
2022-11-22T06:49:25.722Z,62.99
2022-11-22T06:51:53.421Z,63.10
2022-11-22T06:54:22.422Z,63.17
2022-11-22T06:56:50.100Z,63.11
2022-11-22T06:59:17.828Z,63.10
2022-11-22T07:01:45.563Z,62.75
2022-11-22T07:04:13.300Z,62.76
2022-11-22T07:06:41.022Z,63.20
2022-11-22T07:09:10.896Z,63.16
2022-11-22T07:11:41.181Z,62.82
2022-11-22T07:14:09.574Z,63.57
2022-11-22T07:16:38.287Z,63.49
2022-11-22T07:19:06.607Z,63.33
2022-11-22T07:21:35.281Z,63.86
2022-11-22T07:24:02.942Z,63.21
2022-11-22T07:26:30.592Z,63.93
2022-11-22T07:28:59.596Z,63.00
2022-11-22T07:31:28.186Z,64.12
2022-11-22T07:33:57.644Z,64.25
2022-11-22T07:36:29.379Z,64.24
2022-11-22T07:38:57.517Z,63.65
2022-11-22T07:41:25.432Z,63.03
2022-11-22T07:43:53.966Z,63.61
2022-11-22T07:46:26.268Z,63.96
2022-11-22T07:48:54.085Z,63.45
2022-11-22T07:51:21.869Z,63.37
2022-11-22T07:53:49.577Z,63.46
2022-11-22T07:56:17.447Z,63.50
2022-11-22T07:58:45.515Z,63.61
2022-11-22T08:01:15.101Z,64.30
2022-11-22T08:03:44.998Z,63.67
2022-11-22T08:06:14.096Z,64.13
2022-11-22T08:08:41.992Z,64.02
2022-11-22T08:11:10.099Z,64.56
2022-11-22T08:13:38.589Z,63.83
2022-11-22T08:16:08.580Z,63.58
2022-11-22T08:18:36.778Z,64.29
2022-11-22T08:21:10.688Z,64.10
2022-11-22T08:23:39.474Z,63.78
2022-11-22T08:26:09.066Z,64.00
2022-11-22T08:28:37.068Z,63.94
2022-11-22T08:31:07.266Z,64.34
2022-11-22T08:33:35.261Z,63.44
2022-11-22T08:36:02.952Z,64.51
2022-11-22T08:38:32.269Z,64.37
2022-11-22T08:41:00.238Z,64.21
2022-11-22T08:43:27.953Z,63.58
2022-11-22T08:45:57.810Z,64.14
2022-11-22T08:48:26.049Z,64.21
2022-11-22T08:50:55.260Z,63.86
2022-11-22T08:53:23.259Z,63.19
2022-11-22T08:55:52.850Z,62.26
2022-11-22T08:58:20.755Z,61.78
2022-11-22T09:00:48.484Z,62.10
2022-11-22T09:03:16.266Z,61.73
2022-11-22T09:08:35.920Z,60.56
2022-11-22T09:11:10.055Z,60.22
2022-11-22T09:13:38.213Z,59.77
2022-11-22T09:16:08.017Z,59.25
2022-11-22T09:18:36.243Z,59.28
2022-11-22T09:21:05.838Z,59.10
2022-11-22T09:23:34.185Z,59.75
2022-11-22T09:26:04.613Z,58.82
2022-11-22T09:28:34.200Z,58.57
2022-11-22T09:31:02.431Z,59.06
2022-11-22T09:33:30.514Z,59.05
2022-11-22T09:36:02.408Z,59.22
2022-11-22T09:38:30.820Z,59.32
2022-11-22T09:40:59.846Z,59.25
2022-11-22T09:43:40.755Z,58.82
2022-11-22T09:46:26.803Z,58.96
2022-11-22T09:49:16.090Z,58.54
2022-11-22T09:51:50.475Z,58.29
2022-11-22T09:54:23.402Z,58.19
2022-11-22T09:56:55.130Z,57.76
2022-11-22T09:59:28.710Z,58.50
2022-11-22T10:02:17.614Z,58.34
2022-11-22T10:04:52.842Z,58.66
2022-11-22T10:07:25.443Z,58.82
2022-11-22T10:10:00.935Z,58.93
2022-11-22T10:12:36.849Z,58.95
2022-11-22T10:15:15.139Z,58.97
2022-11-22T10:17:53.783Z,58.76
2022-11-22T10:20:23.304Z,59.08
2022-11-22T10:22:51.580Z,59.51
2022-11-22T10:25:21.955Z,59.97
2022-11-22T10:27:57.546Z,60.24
2022-11-22T10:30:36.553Z,61.32
2022-11-22T10:33:14.106Z,61.33
2022-11-22T10:35:59.049Z,61.91
2022-11-22T10:38:49.395Z,62.12
2022-11-22T10:41:29.003Z,62.37
2022-11-22T10:44:08.549Z,61.68
2022-11-22T10:46:51.101Z,62.19
2022-11-22T10:49:31.086Z,62.78
2022-11-22T10:52:05.180Z,63.04
2022-11-22T10:54:43.353Z,62.86
2022-11-22T10:57:17.517Z,62.75
2022-11-22T10:59:59.955Z,62.82
2022-11-22T11:02:57.754Z,63.40
2022-11-22T11:05:33.412Z,63.14
2022-11-22T11:08:21.992Z,63.42
2022-11-22T11:10:49.386Z,63.39
2022-11-22T11:13:22.775Z,63.05
2022-11-22T11:15:56.182Z,62.34
2022-11-22T11:18:31.391Z,61.77
2022-11-22T11:20:59.386Z,61.40
2022-11-22T11:23:27.116Z,61.01
2022-11-22T11:25:54.917Z,60.46
2022-11-22T11:28:24.496Z,59.90
2022-11-22T11:30:55.056Z,59.99
2022-11-22T11:33:29.761Z,59.25
2022-11-22T11:36:03.381Z,58.86
2022-11-22T11:38:34.624Z,58.89
2022-11-22T11:41:27.319Z,59.54
2022-11-22T11:43:56.429Z,59.86
2022-11-22T11:46:25.737Z,59.83
2022-11-22T11:48:56.344Z,60.64
2022-11-22T11:51:39.983Z,60.80
2022-11-22T11:54:12.170Z,61.44
2022-11-22T11:56:53.058Z,61.23
2022-11-22T11:59:22.590Z,61.34
2022-11-22T12:01:55.519Z,62.00
2022-11-22T12:04:28.498Z,62.17
2022-11-22T12:07:03.489Z,62.26
2022-11-22T12:09:37.729Z,62.66
2022-11-22T12:12:36.939Z,62.90
2022-11-22T12:15:14.721Z,62.91
2022-11-22T12:17:52.033Z,62.55
2022-11-22T12:20:26.187Z,62.91
2022-11-22T12:23:09.329Z,62.28
2022-11-22T12:25:39.491Z,61.61
2022-11-22T12:28:18.668Z,61.26
2022-11-22T12:30:50.605Z,61.04
2022-11-22T12:33:21.931Z,60.34
2022-11-22T12:35:54.012Z,59.99
2022-11-22T12:38:24.941Z,59.49
2022-11-22T12:40:55.546Z,59.21
2022-11-22T12:43:25.793Z,59.17
2022-11-22T12:45:56.525Z,59.51
2022-11-22T12:48:31.221Z,59.54
2022-11-22T12:51:04.645Z,60.17
2022-11-22T12:53:36.741Z,60.57
2022-11-22T12:56:13.994Z,60.83
2022-11-22T12:58:51.033Z,61.03
2022-11-22T13:01:26.257Z,61.65
2022-11-22T13:03:58.296Z,62.02
2022-11-22T13:06:45.726Z,61.98
2022-11-22T13:09:18.820Z,62.42
2022-11-22T13:11:52.082Z,62.22
2022-11-22T13:14:24.696Z,62.39
2022-11-22T13:16:52.445Z,62.82
2022-11-22T13:19:25.079Z,62.91
2022-11-22T13:22:08.875Z,62.94
2022-11-22T13:24:49.058Z,62.90
2022-11-22T13:27:21.491Z,63.24
2022-11-22T13:29:53.919Z,63.30
2022-11-22T13:32:23.905Z,63.18
2022-11-22T13:35:05.882Z,63.06
2022-11-22T13:37:38.363Z,63.25
2022-11-22T13:40:24.820Z,62.92
2022-11-22T13:43:25.266Z,63.68
2022-11-22T13:45:54.710Z,63.14
2022-11-22T13:48:55.929Z,63.73
2022-11-22T13:51:51.770Z,62.71
2022-11-22T13:54:56.921Z,62.96
2022-11-22T13:57:33.286Z,62.96
2022-11-22T14:00:30.718Z,61.78
2022-11-22T14:03:22.553Z,61.46
2022-11-22T14:05:52.591Z,61.58
2022-11-22T14:08:30.907Z,61.70
2022-11-22T14:11:18.767Z,61.11
2022-11-22T14:13:57.252Z,60.89
2022-11-22T14:16:40.663Z,60.43
2022-11-22T14:19:21.365Z,60.13
2022-11-22T14:22:05.064Z,60.45
2022-11-22T14:24:50.303Z,60.87
2022-11-22T14:27:27.669Z,61.07
2022-11-22T14:30:14.152Z,61.35
2022-11-22T14:32:50.171Z,61.86
2022-11-22T14:35:30.313Z,62.09
2022-11-22T14:38:21.227Z,62.82
2022-11-22T14:40:48.948Z,62.04
2022-11-22T14:43:37.127Z,62.42
2022-11-22T14:46:37.220Z,62.21
2022-11-22T14:49:07.638Z,62.60
2022-11-22T14:51:35.470Z,63.02
2022-11-22T14:54:12.263Z,63.72
2022-11-22T14:56:43.664Z,63.25
2022-11-22T14:59:30.975Z,63.24
2022-11-22T15:02:20.353Z,63.50
2022-11-22T15:09:23.698Z,63.98
2022-11-22T15:09:23.878Z,63.62
2022-11-22T15:11:30.808Z,63.69
2022-11-22T15:14:17.431Z,63.50
2022-11-22T15:57:26.407Z,63.67
2022-11-22T15:59:56.165Z,64.08
2022-11-22T16:02:27.584Z,64.37
2022-11-22T16:06:07.592Z,64.68
2022-11-22T16:07:49.154Z,64.34
2022-11-22T16:10:22.028Z,64.83
2022-11-22T16:12:50.946Z,64.62
2022-11-22T16:15:30.482Z,65.03
2022-11-22T16:18:08.517Z,64.89
2022-11-22T16:20:37.457Z,64.87
2022-11-22T16:23:19.820Z,64.88
2022-11-22T16:25:50.842Z,64.90
2022-11-22T16:28:27.656Z,65.13
2022-11-22T16:30:56.227Z,65.11
2022-11-22T16:33:24.586Z,65.03
2022-11-22T16:35:56.509Z,64.90
2022-11-22T16:38:25.241Z,65.28
2022-11-22T16:40:57.123Z,65.48
2022-11-22T16:43:27.060Z,65.02
2022-11-22T16:45:54.753Z,65.21
2022-11-22T16:48:31.951Z,65.19
2022-11-22T16:51:06.092Z,65.40
2022-11-22T16:53:42.890Z,65.15
2022-11-22T16:56:15.053Z,65.40
2022-11-22T16:58:42.720Z,65.54
2022-11-22T17:01:12.559Z,65.15
2022-11-22T17:03:41.007Z,65.15
2022-11-22T17:06:13.292Z,65.05
2022-11-22T17:08:40.959Z,65.15
2022-11-22T17:11:12.553Z,65.23
2022-11-22T17:13:40.223Z,65.36
2022-11-22T17:16:09.840Z,65.40
2022-11-22T17:18:37.972Z,65.13
2022-11-22T17:21:06.880Z,64.83
2022-11-22T17:23:36.777Z,65.13
2022-11-22T17:26:05.041Z,64.88
2022-11-22T17:28:34.025Z,65.02
2022-11-22T17:31:02.866Z,65.07
2022-11-22T17:33:30.813Z,65.17
2022-11-22T17:35:58.920Z,65.17
2022-11-22T17:38:26.621Z,65.35
2022-11-22T17:41:00.389Z,65.08
2022-11-22T17:43:28.104Z,65.09
2022-11-22T17:45:57.122Z,65.28
2022-11-22T17:48:24.798Z,65.52
2022-11-22T17:50:52.526Z,65.28
2022-11-22T17:53:20.175Z,65.41
2022-11-22T17:56:09.507Z,65.30
2022-11-22T17:58:36.659Z,65.47
2022-11-22T18:01:06.998Z,65.29
2022-11-22T18:03:35.080Z,65.45
2022-11-22T18:06:02.903Z,65.47
2022-11-22T18:08:30.950Z,65.36
2022-11-22T18:11:00.661Z,65.44
2022-11-22T18:13:29.811Z,65.49
2022-11-22T18:16:03.188Z,65.60
2022-11-22T18:18:55.624Z,65.24
2022-11-22T18:21:20.840Z,65.20
2022-11-22T18:23:48.601Z,65.13
2022-11-22T18:26:38.248Z,65.26
2022-11-22T18:31:52.945Z,64.97
2022-11-22T18:34:22.749Z,65.17
2022-11-22T18:37:06.217Z,65.04
2022-11-22T18:39:36.897Z,65.28
2022-11-22T18:42:06.436Z,65.35
2022-11-22T18:44:34.730Z,65.34
2022-11-22T18:47:02.579Z,65.39
2022-11-22T18:49:32.015Z,65.21
2022-11-22T18:52:00.200Z,65.20
2022-11-22T18:54:27.982Z,65.17
2022-11-22T18:56:55.695Z,65.13
2022-11-22T18:59:23.409Z,65.29
2022-11-22T19:01:51.174Z,65.13
2022-11-22T19:04:18.912Z,65.08
2022-11-22T19:06:47.938Z,65.00
2022-11-22T19:09:15.666Z,65.10
2022-11-22T19:11:43.341Z,65.25
2022-11-22T19:14:11.045Z,65.22
2022-11-22T19:16:38.757Z,65.27
2022-11-22T19:19:08.099Z,65.46
2022-11-22T19:21:35.850Z,65.43
2022-11-22T19:24:05.520Z,65.48
2022-11-22T19:26:33.175Z,65.31
2022-11-22T19:29:02.484Z,65.55
2022-11-22T19:31:31.415Z,65.38
2022-11-22T19:33:59.884Z,65.41
2022-11-22T19:36:33.393Z,65.67
2022-11-22T19:39:02.258Z,65.60
2022-11-22T19:41:31.928Z,65.63
2022-11-22T19:43:59.731Z,65.59
2022-11-22T19:46:27.517Z,65.96
2022-11-22T19:48:56.556Z,65.90
2022-11-22T19:51:25.149Z,65.70
2022-11-22T19:53:54.450Z,65.72
2022-11-22T19:56:22.285Z,65.62
2022-11-22T19:58:53.337Z,65.94
2022-11-22T20:01:22.206Z,66.09
2022-11-22T20:03:53.049Z,66.16
2022-11-22T20:06:21.539Z,66.02
2022-11-22T20:08:49.246Z,66.20
2022-11-22T20:11:19.057Z,66.22
2022-11-22T20:13:49.214Z,66.14
2022-11-22T20:16:21.037Z,66.17
2022-11-22T20:18:49.326Z,66.46
2022-11-22T20:21:21.893Z,66.52
2022-11-22T20:23:50.206Z,66.16
2022-11-22T20:26:18.687Z,66.25
2022-11-22T20:28:47.201Z,66.32
2022-11-22T20:31:16.448Z,66.41
2022-11-22T20:33:47.053Z,66.62
2022-11-22T20:36:16.854Z,66.66
2022-11-22T20:38:46.063Z,66.46
2022-11-22T20:41:15.351Z,66.66
2022-11-22T20:43:43.663Z,66.36
2022-11-22T20:46:13.370Z,66.56
2022-11-22T20:48:42.887Z,66.84
2022-11-22T20:51:13.606Z,66.24
2022-11-22T20:53:42.000Z,66.84
2022-11-22T20:56:10.003Z,67.32
2022-11-22T20:58:37.734Z,67.23
2022-11-22T21:01:06.922Z,66.92
2022-11-22T21:03:34.921Z,67.09
2022-11-22T21:06:03.527Z,67.24
2022-11-22T21:08:34.373Z,67.20
2022-11-22T21:11:07.514Z,67.68
2022-11-22T21:13:35.545Z,67.21
2022-11-22T21:16:20.663Z,67.24
2022-11-22T21:18:51.480Z,67.43
2022-11-22T21:21:22.741Z,67.81
2022-11-22T21:23:52.799Z,67.44
2022-11-22T21:26:21.219Z,67.53
2022-11-22T21:28:49.080Z,67.67
2022-11-22T21:31:17.328Z,67.88
2022-11-22T21:33:45.682Z,67.75
2022-11-22T21:36:13.717Z,67.83
2022-11-22T21:38:41.452Z,67.72
2022-11-22T21:41:38.692Z,67.63
2022-11-22T21:44:02.055Z,67.95
2022-11-22T21:46:29.761Z,67.79
2022-11-22T21:48:57.499Z,67.83
2022-11-22T21:51:26.262Z,67.98
2022-11-22T21:53:58.625Z,67.70
2022-11-22T21:56:28.110Z,67.98
2022-11-22T21:58:55.810Z,67.88
2022-11-22T22:01:24.214Z,67.97
2022-11-22T22:03:52.141Z,68.11
2022-11-22T22:06:19.954Z,68.14
2022-11-22T22:08:47.601Z,68.05
2022-11-22T22:11:15.277Z,68.01
2022-11-22T22:13:44.501Z,68.12
2022-11-22T22:16:18.640Z,68.04
2022-11-22T22:18:47.189Z,68.08
2022-11-22T22:21:16.448Z,68.14
2022-11-22T22:23:45.038Z,67.66
2022-11-22T22:26:14.554Z,68.15
2022-11-22T22:28:42.368Z,68.07
2022-11-22T22:31:13.537Z,68.01
2022-11-22T22:33:42.346Z,68.16
2022-11-22T22:36:11.642Z,67.99
2022-11-22T22:38:39.777Z,68.03
2022-11-22T22:41:08.996Z,67.93
2022-11-22T22:43:38.558Z,68.44
2022-11-22T22:46:08.157Z,67.99
2022-11-22T22:48:37.156Z,68.09
2022-11-22T22:51:06.629Z,68.32
2022-11-22T22:53:34.340Z,68.35
2022-11-22T22:56:02.262Z,68.14
2022-11-22T22:58:29.969Z,68.43
2022-11-22T23:01:05.745Z,67.83
2022-11-22T23:03:33.490Z,68.34
2022-11-22T23:06:05.775Z,68.24
2022-11-22T23:08:33.628Z,68.28
2022-11-22T23:11:04.255Z,68.35
2022-11-22T23:13:33.046Z,68.22
2022-11-22T23:16:01.096Z,68.57
2022-11-22T23:18:29.389Z,68.32
2022-11-22T23:21:00.490Z,68.33
2022-11-22T23:23:30.153Z,68.43
2022-11-22T23:26:02.831Z,68.45
2022-11-22T23:28:30.645Z,68.41
2022-11-22T23:31:04.918Z,68.33
2022-11-22T23:33:32.639Z,68.49
2022-11-22T23:36:02.909Z,68.58
2022-11-22T23:38:32.051Z,68.47
2022-11-22T23:41:00.081Z,68.29
2022-11-22T23:43:28.152Z,68.51
2022-11-22T23:45:55.904Z,68.83
2022-11-22T23:48:23.535Z,68.38
2022-11-22T23:50:51.433Z,68.65
2022-11-22T23:53:19.080Z,68.54
2022-11-22T23:55:48.076Z,68.56
2022-11-22T23:58:15.738Z,68.17
